2011-05-27から1日間の記事一覧

もらったPCやっと復活

pc

yahooオークションで中古の電源FSP145-60を見つけて購入。今度は起動した。CPUは何か分からないけど1GHzなのでたぶんPen3。 結局復活にかかったお金は、激安ケース(不良)\2,600+中古電源①(不良)\1,500+中古電源②(作動)\3,600=\7,700 そこそこの電源付ケースが買えたな…

Aviation Digital Data Service (ADDS)

Aviation Digital Data Service (ADDS)Output produced by METARs form (0306 UTC 27 May 2011) found at http://aviationweather.gov/adds/metars/index.php RJFR 270300Z 10005KT 080V150 9999 FEW010 BKN015 BKN035 19/15 Q1012 RJFR 270200Z 10007KT 999…